Time;durP1;ratioP1;P1;durP2;ratioP2;P2;SDS_P1;SDS_P2;PMS_P1;PMS_P2;Temp;Humidity;BMP_temperature;BMP_pressure;BME280_temperature;BME280_humidity;BME280_pressure;Samples;Min_cycle;Max_cycle;Signal;HPM_P1;HPM_P2
2022/01/10 00:00:09;;;;;;;55.25;16.75;;;;;;;-2.38;nan;99658.78;5056201;28;20467;-73
2022/01/10 00:02:34;;;;;;;51.10;15.07;;;;;;;-2.37;nan;99655.25;5056058;28;20032;-73
2022/01/10 00:05:00;;;;;;;38.47;13.23;;;;;;;-2.33;nan;99658.28;5056142;28;20024;-73
2022/01/10 00:07:25;;;;;;;46.85;14.32;;;;;;;-2.34;nan;99658.47;5055709;28;20040;-73
2022/01/10 00:09:50;;;;;;;47.20;15.20;;;;;;;-2.47;nan;99626.22;5056106;28;20455;-72
2022/01/10 00:12:16;;;;;;;50.30;15.20;;;;;;;-2.44;nan;99635.41;5054704;28;20131;-73
2022/01/10 00:14:41;;;;;;;44.08;13.80;;;;;;;-2.31;nan;99645.25;5055940;28;20029;-73
2022/01/10 00:17:06;;;;;;;45.15;15.27;;;;;;;-2.32;nan;99638.47;5049169;28;20029;-73
2022/01/10 00:19:32;;;;;;;48.05;14.02;;;;;;;-2.34;nan;99643.00;5055170;28;20036;-73
2022/01/10 00:21:57;;;;;;;48.30;15.15;;;;;;;-2.31;nan;99646.06;5035647;28;20488;-73
2022/01/10 00:24:23;;;;;;;48.70;14.43;;;;;;;-2.21;nan;99671.69;5048314;28;20033;-73
2022/01/10 00:26:48;;;;;;;137.20;16.65;;;;;;;-2.23;nan;99682.16;5055831;28;20031;-73
2022/01/10 00:29:14;;;;;;;50.47;16.23;;;;;;;-2.35;nan;99662.81;5055144;28;20033;-74
2022/01/10 00:31:40;;;;;;;53.60;14.95;;;;;;;-2.36;nan;99643.94;5055695;28;20048;-73
2022/01/10 00:34:05;;;;;;;48.85;15.63;;;;;;;-2.34;nan;99651.53;5037435;28;20059;-73
2022/01/10 00:36:31;;;;;;;41.42;13.68;;;;;;;-2.37;nan;99637.19;5055583;28;20032;-73
2022/01/10 00:38:56;;;;;;;57.55;15.95;;;;;;;-2.32;nan;99659.09;5054689;28;20051;-72
2022/01/10 00:41:22;;;;;;;48.10;16.10;;;;;;;-2.36;nan;99651.69;5037521;28;20079;-73
2022/01/10 00:43:49;;;;;;;51.53;15.43;;;;;;;-2.45;nan;99641.53;5053610;28;20151;-73
2022/01/10 00:46:15;;;;;;;47.42;15.52;;;;;;;-2.44;nan;99638.81;5054300;28;20034;-73
2022/01/10 00:48:41;;;;;;;62.22;16.45;;;;;;;-2.36;nan;99648.31;5055094;28;20044;-73
2022/01/10 00:51:06;;;;;;;50.47;14.80;;;;;;;-2.28;nan;99655.25;5037216;28;20435;-73
2022/01/10 00:53:32;;;;;;;47.55;16.23;;;;;;;-2.43;nan;99639.59;5036605;28;20068;-73
2022/01/10 00:55:58;;;;;;;189.00;28.30;;;;;;;-2.31;nan;99650.41;5054902;28;20058;-73
2022/01/10 00:58:23;;;;;;;52.35;16.92;;;;;;;-2.27;nan;99665.41;5054681;28;20025;-73
2022/01/10 01:00:51;;;;;;;53.78;17.45;;;;;;;-2.33;nan;99652.34;5054864;28;20029;-73
2022/01/10 01:03:17;;;;;;;46.78;16.80;;;;;;;-2.32;nan;99641.03;5033644;28;20029;-73
2022/01/10 01:05:43;;;;;;;57.67;17.17;;;;;;;-2.25;nan;99650.59;5036688;28;20515;-73
2022/01/10 01:08:10;;;;;;;758.53;169.23;;;;;;;-2.16;nan;99651.38;5036510;28;20040;-72
2022/01/10 01:24:06;;;;;;;60.35;17.80;;;;;;;-2.16;nan;99633.31;5053930;28;20047;-73
2022/01/10 01:26:46;;;;;;;56.67;17.95;;;;;;;-2.04;nan;99651.88;5036831;28;20052;-73
2022/01/10 01:29:19;;;;;;;52.50;18.45;;;;;;;-2.10;nan;99637.84;5054830;28;20115;-72
2022/01/10 01:31:44;;;;;;;57.78;18.90;;;;;;;-2.02;nan;99648.16;5059667;28;20021;-72
2022/01/10 01:34:11;;;;;;;51.72;18.52;;;;;;;-2.02;nan;99640.41;5074142;28;20067;-73
2022/01/10 01:36:37;;;;;;;57.63;17.85;;;;;;;-2.12;nan;99632.03;5042427;28;20040;-72
2022/01/10 01:39:15;;;;;;;55.42;17.52;;;;;;;-2.11;nan;99638.81;5034234;28;20033;-73
2022/01/10 01:41:42;;;;;;;59.35;19.48;;;;;;;-2.10;nan;99642.22;5051553;28;20055;-73
2022/01/10 01:44:08;;;;;;;58.42;18.15;;;;;;;-2.05;nan;99639.94;5036059;28;20128;-73
2022/01/10 01:46:34;;;;;;;67.93;18.98;;;;;;;-2.05;nan;99645.91;5054824;28;20640;-72
2022/01/10 01:49:00;;;;;;;67.22;19.77;;;;;;;-2.18;nan;99635.25;5054074;28;20075;-72
2022/01/10 01:51:26;;;;;;;61.35;18.88;;;;;;;-2.11;nan;99650.91;5054619;28;20033;-73
2022/01/10 01:53:52;;;;;;;86.43;19.48;;;;;;;-2.26;nan;99630.91;5055064;28;20044;-75
2022/01/10 01:56:19;;;;;;;53.42;17.48;;;;;;;-2.31;nan;99633.16;5058549;28;20037;-73
2022/01/10 01:58:46;;;;;;;48.53;16.15;;;;;;;-2.33;nan;99634.28;5037035;28;20510;-74
2022/01/10 02:01:16;;;;;;;44.60;16.27;;;;;;;-2.35;nan;99634.44;5040487;28;20037;-74
2022/01/10 02:03:42;;;;;;;40.80;15.82;;;;;;;-2.33;nan;99636.88;5058356;28;20025;-74
2022/01/10 02:06:08;;;;;;;47.75;15.85;;;;;;;-2.25;nan;99652.34;5039987;28;20383;-73
2022/01/10 02:08:34;;;;;;;45.72;16.00;;;;;;;-2.33;nan;99637.66;5057678;28;20031;-74
2022/01/10 02:10:59;;;;;;;44.90;14.18;;;;;;;-2.32;nan;99641.88;5057915;28;20036;-73
2022/01/10 02:13:26;;;;;;;44.78;14.50;;;;;;;-2.37;nan;99652.66;5048494;28;20028;-74
2022/01/10 02:16:01;;;;;;;38.22;14.45;;;;;;;-2.43;nan;99644.75;5041849;28;20068;-74
2022/01/10 02:18:27;;;;;;;44.75;15.35;;;;;;;-2.41;nan;99656.53;5057704;28;20116;-73
2022/01/10 02:20:53;;;;;;;45.65;15.00;;;;;;;-2.44;nan;99654.28;5057853;28;20125;-75
2022/01/10 02:23:20;;;;;;;38.20;13.80;;;;;;;-2.47;nan;99643.44;5039445;28;20033;-73
2022/01/10 02:25:46;;;;;;;44.97;14.73;;;;;;;-2.49;nan;99645.38;5057121;28;20482;-73
2022/01/10 02:28:13;;;;;;;36.05;13.18;;;;;;;-2.51;nan;99645.56;5057384;28;20079;-73
2022/01/10 02:30:39;;;;;;;32.47;12.40;;;;;;;-2.52;nan;99651.66;5057230;28;20112;-73
2022/01/10 02:33:05;;;;;;;31.17;13.63;;;;;;;-2.58;nan;99653.09;5057052;28;20029;-74
2022/01/10 02:35:40;;;;;;;37.95;14.50;;;;;;;-2.54;nan;99663.91;5039261;28;20550;-73
2022/01/10 02:38:05;;;;;;;43.45;15.52;;;;;;;-2.60;nan;99652.47;5038740;28;20033;-73
2022/01/10 02:40:32;;;;;;;37.03;12.38;;;;;;;-2.66;nan;99652.28;5057098;28;20064;-73
2022/01/10 02:43:00;;;;;;;38.67;14.68;;;;;;;-2.56;nan;99671.00;5056808;28;20099;-73
2022/01/10 02:45:25;;;;;;;49.35;16.48;;;;;;;-2.62;nan;99659.53;5038822;28;20033;-72
2022/01/10 02:47:51;;;;;;;38.95;13.30;;;;;;;-2.69;nan;99670.63;5039218;28;20387;-72
2022/01/10 02:50:18;;;;;;;36.63;14.57;;;;;;;-2.78;nan;99664.63;5056676;28;20040;-72
2022/01/10 02:52:44;;;;;;;34.92;13.48;;;;;;;-2.79;nan;99663.03;5055317;28;20060;-74
2022/01/10 02:55:11;;;;;;;39.08;13.15;;;;;;;-2.80;nan;99667.38;5038874;28;20043;-74
2022/01/10 02:57:37;;;;;;;35.92;13.15;;;;;;;-2.84;nan;99678.16;5056600;28;20025;-74
2022/01/10 03:00:13;;;;;;;35.33;13.88;;;;;;;-3.19;nan;99645.66;5038749;28;20137;-74
2022/01/10 03:02:38;;;;;;;28.77;12.68;;;;;;;-2.94;nan;99687.78;5039338;28;20086;-74
2022/01/10 03:05:05;;;;;;;31.83;12.45;;;;;;;-3.05;nan;99678.56;5037919;28;20037;-74
2022/01/10 03:07:31;;;;;;;41.80;13.55;;;;;;;-3.06;nan;99682.91;5037099;28;20037;-74
2022/01/10 03:09:57;;;;;;;41.60;14.18;;;;;;;-3.11;nan;99663.72;5052001;28;20040;-74
2022/01/10 03:12:23;;;;;;;40.42;15.13;;;;;;;-3.09;nan;99672.09;5022021;28;20040;-73
2022/01/10 03:14:48;;;;;;;39.22;14.05;;;;;;;-3.20;nan;99665.47;5056366;28;20029;-73
2022/01/10 03:17:14;;;;;;;36.75;12.93;;;;;;;-3.10;nan;99696.25;5054616;28;20025;-74
2022/01/10 03:19:41;;;;;;;33.10;12.50;;;;;;;-3.19;nan;99697.97;5056015;28;20032;-74
2022/01/10 03:22:08;;;;;;;35.35;13.30;;;;;;;-3.15;nan;99708.78;5056371;28;20025;-74
2022/01/10 03:24:34;;;;;;;40.45;12.95;;;;;;;-3.28;nan;99691.16;5037752;28;20033;-74
2022/01/10 03:27:00;;;;;;;39.50;14.18;;;;;;;-3.36;nan;99678.25;5037790;28;20121;-75
2022/01/10 03:29:25;;;;;;;40.35;13.85;;;;;;;-3.21;nan;99698.13;5038936;28;20060;-74
2022/01/10 03:31:51;;;;;;;37.88;12.82;;;;;;;-3.24;nan;99695.84;5021715;28;20029;-73
2022/01/10 03:34:17;;;;;;;39.22;14.18;;;;;;;-3.19;nan;99699.72;5038299;28;20033;-74
2022/01/10 03:36:43;;;;;;;46.13;15.18;;;;;;;-3.33;nan;99699.31;5055937;28;20032;-74
2022/01/10 03:39:11;;;;;;;43.42;15.20;;;;;;;-3.31;nan;99694.84;5055938;28;20032;-73
2022/01/10 03:41:37;;;;;;;42.80;15.13;;;;;;;-3.31;nan;99688.88;5056152;28;20044;-73
2022/01/10 03:44:03;;;;;;;48.42;15.60;;;;;;;-3.39;nan;99681.94;5056058;28;20064;-73
2022/01/10 03:46:31;;;;;;;50.45;15.52;;;;;;;-3.36;nan;99691.13;5037790;28;20029;-72
2022/01/10 03:48:56;;;;;;;55.20;16.33;;;;;;;-3.31;nan;99694.84;5037652;28;20090;-73
2022/01/10 03:51:22;;;;;;;47.22;16.20;;;;;;;-3.37;nan;99682.59;5056131;28;20041;-73
2022/01/10 03:53:47;;;;;;;47.72;15.73;;;;;;;-3.31;nan;99681.97;5055514;28;20451;-72
2022/01/10 03:56:12;;;;;;;47.88;14.82;;;;;;;-3.26;nan;99687.47;5055895;28;20029;-73
2022/01/10 03:58:38;;;;;;;46.88;16.05;;;;;;;-3.38;nan;99677.59;5034115;28;20021;-73
2022/01/10 04:01:05;;;;;;;47.85;15.13;;;;;;;-3.25;nan;99704.53;5035959;28;20065;-71
2022/01/10 04:03:31;;;;;;;45.80;15.15;;;;;;;-3.34;nan;99687.44;5034817;28;20036;-73
2022/01/10 04:05:58;;;;;;;51.30;15.32;;;;;;;-3.34;nan;99696.91;5037266;28;20090;-73
2022/01/10 04:08:24;;;;;;;48.42;15.23;;;;;;;-3.39;nan;99691.44;5055474;28;20059;-72
2022/01/10 04:10:50;;;;;;;57.85;17.08;;;;;;;-3.32;nan;99698.38;5053815;28;20032;-73
2022/01/10 04:13:15;;;;;;;44.75;14.20;;;;;;;-3.37;nan;99708.34;5043580;28;20032;-73
2022/01/10 04:15:40;;;;;;;44.92;15.50;;;;;;;-3.48;nan;99686.22;5054036;28;20032;-73
2022/01/10 04:18:07;;;;;;;44.70;14.23;;;;;;;-3.42;nan;99701.06;5051178;28;20072;-72
2022/01/10 04:20:33;;;;;;;47.60;14.73;;;;;;;-3.52;nan;99684.91;5054026;28;20025;-72
2022/01/10 04:22:58;;;;;;;40.45;14.90;;;;;;;-3.59;nan;99689.06;5053164;28;20032;-74
2022/01/10 04:25:24;;;;;;;44.65;16.17;;;;;;;-3.55;nan;99708.34;5053733;28;20115;-72
2022/01/10 04:27:49;;;;;;;48.38;15.18;;;;;;;-3.54;nan;99693.75;5053453;28;20483;-73
2022/01/10 04:30:15;;;;;;;50.42;16.05;;;;;;;-3.40;nan;99720.69;5053476;28;20125;-73
2022/01/10 04:32:42;;;;;;;48.25;14.00;;;;;;;-3.46;nan;99701.50;5035127;28;20033;-74
2022/01/10 04:35:08;;;;;;;56.85;17.08;;;;;;;-3.48;nan;99693.13;5053430;28;20066;-73
2022/01/10 04:37:33;;;;;;;60.78;18.10;;;;;;;-3.53;nan;99697.94;5053039;28;20060;-73
2022/01/10 04:39:59;;;;;;;55.88;17.77;;;;;;;-3.45;nan;99713.41;5053315;28;20056;-73
2022/01/10 04:42:24;;;;;;;51.97;17.55;;;;;;;-3.46;nan;99711.81;5035404;28;20041;-73
2022/01/10 04:44:50;;;;;;;56.42;17.90;;;;;;;-3.50;nan;99695.84;5053474;28;20445;-73
2022/01/10 04:47:16;;;;;;;53.65;17.33;;;;;;;-3.42;nan;99710.56;5053210;28;20029;-73
2022/01/10 04:52:26;;;;;;;57.20;17.58;;;;;;;-3.48;nan;99717.09;5052943;28;20075;-72
2022/01/10 04:54:51;;;;;;;52.45;17.10;;;;;;;-3.39;nan;99730.03;5035453;28;20409;-73
2022/01/10 04:57:17;;;;;;;51.45;16.45;;;;;;;-3.39;nan;99737.75;5053159;28;20036;-73
2022/01/10 04:59:42;;;;;;;45.03;14.38;;;;;;;-3.54;nan;99719.50;5035128;28;20122;-72
2022/01/10 05:02:10;;;;;;;48.65;15.90;;;;;;;-3.67;nan;99712.13;5034658;28;20060;-74
2022/01/10 05:04:35;;;;;;;46.45;15.27;;;;;;;-3.57;nan;99730.84;5053069;28;20033;-73
2022/01/10 05:07:01;;;;;;;44.63;14.98;;;;;;;-3.58;nan;99734.41;5034810;28;20375;-73
2022/01/10 05:09:26;;;;;;;41.00;14.43;;;;;;;-3.63;nan;99732.28;5053335;28;20136;-72
2022/01/10 05:11:51;;;;;;;41.80;14.77;;;;;;;-3.59;nan;99740.53;5053233;28;20592;-72
2022/01/10 05:14:17;;;;;;;37.53;13.98;;;;;;;-3.56;nan;99737.63;5053366;28;20035;-74
2022/01/10 05:16:43;;;;;;;45.15;18.38;;;;;;;-3.48;nan;99747.19;5039237;28;20029;-73
2022/01/10 05:19:09;;;;;;;44.17;16.23;;;;;;;-3.51;nan;99737.19;5044981;28;20040;-74
2022/01/10 05:21:35;;;;;;;43.83;15.98;;;;;;;-3.49;nan;99751.53;5053262;28;20029;-73
2022/01/10 05:24:01;;;;;;;38.40;13.50;;;;;;;-3.47;nan;99765.06;5034584;28;20072;-73
2022/01/10 05:26:26;;;;;;;36.40;14.48;;;;;;;-3.56;nan;99741.97;5049072;28;20039;-73
2022/01/10 05:28:59;;;;;;;39.15;13.10;;;;;;;-3.47;nan;99769.38;5050870;28;20037;-73
2022/01/10 05:31:25;;;;;;;32.65;13.85;;;;;;;-3.43;nan;99791.28;5052141;28;20040;-73
2022/01/10 05:33:51;;;;;;;34.88;14.18;;;;;;;-3.41;nan;99807.41;5052180;28;20032;-73
2022/01/10 05:36:16;;;;;;;31.70;13.65;;;;;;;-3.32;nan;99814.22;5051878;28;20528;-73
2022/01/10 05:38:42;;;;;;;66.50;16.92;;;;;;;-3.37;nan;99806.16;5043520;28;20087;-73
2022/01/10 05:41:07;;;;;;;28.88;13.02;;;;;;;-3.41;nan;99791.94;5043421;28;20095;-74
2022/01/10 05:43:33;;;;;;;36.55;14.63;;;;;;;-3.35;nan;99801.66;5050975;28;20064;-74
2022/01/10 05:45:58;;;;;;;38.75;14.13;;;;;;;-3.34;nan;99813.56;5029146;28;20075;-74
2022/01/10 05:48:28;;;;;;;33.75;13.52;;;;;;;-3.36;nan;99801.81;5031891;28;20034;-73
2022/01/10 05:50:54;;;;;;;39.70;15.05;;;;;;;-3.39;nan;99804.69;5050276;28;20083;-72
2022/01/10 05:53:20;;;;;;;38.42;14.68;;;;;;;-3.63;nan;99780.38;5033774;28;20052;-73
2022/01/10 05:55:46;;;;;;;32.40;13.68;;;;;;;-3.44;nan;99812.84;5051603;28;20090;-74
2022/01/10 05:58:11;;;;;;;40.63;13.32;;;;;;;-3.45;nan;99809.47;5051568;28;20483;-73
2022/01/10 06:00:38;;;;;;;35.63;14.57;;;;;;;-3.48;nan;99807.19;5051811;28;20047;-73
2022/01/10 06:03:03;;;;;;;36.28;14.57;;;;;;;-3.52;nan;99797.31;5051633;28;20028;-74
2022/01/10 06:05:32;;;;;;;35.83;13.90;;;;;;;-3.52;nan;99808.44;5051896;28;20036;-73
2022/01/10 06:07:59;;;;;;;27.30;10.93;;;;;;;-3.63;nan;99806.09;5051316;28;20118;-73
2022/01/10 06:10:25;;;;;;;133.65;16.83;;;;;;;-3.51;nan;99809.25;5033194;28;20029;-73
2022/01/10 06:12:51;;;;;;;42.20;15.32;;;;;;;-3.55;nan;99802.78;5051476;28;20025;-73
2022/01/10 06:15:17;;;;;;;43.17;15.57;;;;;;;-3.61;nan;99799.03;5051586;28;20041;-73
2022/01/10 06:17:42;;;;;;;37.28;13.98;;;;;;;-3.55;nan;99816.44;5046311;28;20025;-74
2022/01/10 06:20:08;;;;;;;46.33;17.65;;;;;;;-3.60;nan;99810.13;5039514;28;20438;-73
2022/01/10 06:22:33;;;;;;;35.15;14.98;;;;;;;-3.58;nan;99810.78;5051355;28;20087;-72
2022/01/10 06:24:59;;;;;;;36.35;14.57;;;;;;;-3.66;nan;99798.69;5051177;28;20390;-73
2022/01/10 06:27:24;;;;;;;34.70;13.93;;;;;;;-3.65;nan;99803.66;5051120;28;20021;-73
2022/01/10 06:29:50;;;;;;;36.67;13.48;;;;;;;-3.67;nan;99808.13;5051831;28;20025;-74
2022/01/10 06:32:15;;;;;;;36.63;13.40;;;;;;;-3.78;nan;99799.81;5033271;28;20036;-73
2022/01/10 06:34:41;;;;;;;38.67;14.40;;;;;;;-3.64;nan;99822.47;5021098;28;20456;-73
2022/01/10 06:37:06;;;;;;;46.20;16.70;;;;;;;-3.66;nan;99825.22;5036016;28;20116;-74
2022/01/10 06:39:31;;;;;;;38.47;15.63;;;;;;;-3.74;nan;99812.25;5031523;28;20080;-74
2022/01/10 06:41:57;;;;;;;36.60;15.02;;;;;;;-3.66;nan;99820.06;5045956;28;20091;-73
2022/01/10 06:44:22;;;;;;;34.50;14.93;;;;;;;-3.92;nan;99796.03;5055300;28;20037;-73
2022/01/10 06:46:48;;;;;;;41.53;15.85;;;;;;;-3.71;nan;99829.16;5044126;28;20037;-73
2022/01/10 06:49:13;;;;;;;35.15;13.85;;;;;;;-3.83;nan;99823.44;5034924;28;20075;-73
2022/01/10 06:51:38;;;;;;;35.95;14.75;;;;;;;-3.80;nan;99833.44;5034780;28;20035;-73
2022/01/10 06:54:04;;;;;;;44.65;14.65;;;;;;;-3.81;nan;99828.44;5040045;28;20037;-74
2022/01/10 06:56:29;;;;;;;39.42;15.50;;;;;;;-3.87;nan;99822.09;5029491;28;20574;-74
2022/01/10 06:58:55;;;;;;;48.78;17.42;;;;;;;-3.73;nan;99849.91;5044994;28;20402;-74
2022/01/10 07:01:20;;;;;;;57.00;19.80;;;;;;;-3.79;nan;99831.66;5036776;28;20071;-74
2022/01/10 07:03:46;;;;;;;54.47;19.65;;;;;;;-3.86;nan;99824.53;5036599;28;20071;-75
2022/01/10 07:06:12;;;;;;;48.38;17.23;;;;;;;-3.83;nan;99828.59;5054576;28;20037;-75
2022/01/10 07:08:37;;;;;;;52.08;17.58;;;;;;;-3.80;nan;99830.06;5054564;28;20033;-73
2022/01/10 07:11:02;;;;;;;54.42;19.02;;;;;;;-3.81;nan;99842.09;5054668;28;20063;-72
2022/01/10 07:13:28;;;;;;;53.88;18.08;;;;;;;-3.81;nan;99851.56;5054620;28;20478;-74
2022/01/10 07:15:53;;;;;;;55.88;19.35;;;;;;;-3.80;nan;99848.06;5044336;28;20388;-72
2022/01/10 07:18:19;;;;;;;54.80;18.98;;;;;;;-3.78;nan;99849.53;5053286;28;20028;-73
2022/01/10 07:20:44;;;;;;;44.85;15.38;;;;;;;-3.84;nan;99844.97;5041554;28;20032;-74
2022/01/10 07:23:10;;;;;;;77.10;21.83;;;;;;;-3.74;nan;99862.91;5036304;28;20036;-74
2022/01/10 07:25:35;;;;;;;64.45;22.55;;;;;;;-3.69;nan;99865.84;5052508;28;20029;-72
2022/01/10 07:28:01;;;;;;;58.00;20.08;;;;;;;-3.73;nan;99870.47;5053821;28;20079;-73
2022/01/10 07:30:26;;;;;;;54.10;18.67;;;;;;;-3.75;nan;99874.97;5053182;28;20029;-74
2022/01/10 07:32:52;;;;;;;72.10;21.48;;;;;;;-3.75;nan;99863.88;5054059;28;20036;-73
2022/01/10 07:35:18;;;;;;;88.15;25.60;;;;;;;-3.75;nan;99863.88;5053765;28;20036;-73
2022/01/10 07:37:43;;;;;;;67.43;22.35;;;;;;;-3.74;nan;99870.63;5053854;28;20036;-71
2022/01/10 07:40:09;;;;;;;64.75;20.05;;;;;;;-3.81;nan;99882.44;5053645;28;20494;-71
2022/01/10 07:42:35;;;;;;;44.65;16.35;;;;;;;-3.84;nan;99880.97;5033872;28;20033;-71
2022/01/10 07:45:01;;;;;;;41.42;15.77;;;;;;;-3.80;nan;99887.44;5022323;28;20117;-72
2022/01/10 07:47:28;;;;;;;43.03;14.55;;;;;;;-3.89;nan;99878.84;5016884;28;20088;-72
2022/01/10 07:49:53;;;;;;;41.78;16.25;;;;;;;-3.94;nan;99875.88;4999381;28;20045;-72
2022/01/10 07:52:19;;;;;;;44.00;16.40;;;;;;;-3.94;nan;99880.22;5032961;28;20030;-72
2022/01/10 07:54:45;;;;;;;45.40;16.38;;;;;;;-3.90;nan;99882.38;5033173;28;20040;-71
2022/01/10 07:57:10;;;;;;;45.70;16.23;;;;;;;-3.94;nan;99882.78;5047879;28;20475;-72
2022/01/10 07:59:35;;;;;;;44.67;16.45;;;;;;;-3.94;nan;99888.75;5017312;28;20037;-72
2022/01/10 08:02:02;;;;;;;47.38;17.15;;;;;;;-3.97;nan;99877.94;5032336;28;20479;-73
2022/01/10 08:04:27;;;;;;;49.88;17.00;;;;;;;-3.99;nan;99888.38;5015638;28;20041;-73
2022/01/10 08:06:53;;;;;;;44.38;15.93;;;;;;;-3.92;nan;99898.91;5033533;28;20033;-73
2022/01/10 08:09:18;;;;;;;42.10;14.43;;;;;;;-3.97;nan;99888.25;5033446;28;20033;-72
2022/01/10 08:11:44;;;;;;;37.45;14.25;;;;;;;-3.92;nan;99906.63;5033799;28;20029;-72
2022/01/10 08:14:09;;;;;;;43.10;15.65;;;;;;;-3.90;nan;99917.56;5051538;28;20082;-73
2022/01/10 08:16:34;;;;;;;46.60;16.13;;;;;;;-3.92;nan;99917.72;5053487;28;20025;-72
2022/01/10 08:19:00;;;;;;;39.33;14.02;;;;;;;-3.90;nan;99915.81;5053084;28;20033;-72
2022/01/10 08:21:26;;;;;;;40.85;15.68;;;;;;;-3.89;nan;99911.47;5053350;28;20394;-73
2022/01/10 08:23:51;;;;;;;31.60;13.15;;;;;;;-4.02;nan;99904.09;5053543;28;20040;-73
2022/01/10 08:26:16;;;;;;;35.53;13.60;;;;;;;-3.98;nan;99910.53;5053318;28;20037;-73
2022/01/10 08:28:42;;;;;;;37.33;14.30;;;;;;;-4.05;nan;99904.34;5053028;28;20083;-73
2022/01/10 08:31:11;;;;;;;31.35;12.52;;;;;;;-4.13;nan;99894.78;5053130;28;20036;-73
2022/01/10 08:33:36;;;;;;;40.20;14.93;;;;;;;-4.01;nan;99917.75;5033366;28;20043;-72
2022/01/10 08:36:02;;;;;;;41.22;15.52;;;;;;;-3.95;nan;99924.88;5038059;28;20112;-72
2022/01/10 08:38:27;;;;;;;43.30;15.82;;;;;;;-4.01;nan;99915.97;5052887;28;20412;-73
2022/01/10 08:40:53;;;;;;;42.00;16.58;;;;;;;-4.01;nan;99912.63;5034423;28;20565;-72
2022/01/10 08:43:18;;;;;;;43.05;15.70;;;;;;;-3.97;nan;99919.09;5052998;28;20033;-73
2022/01/10 08:45:44;;;;;;;36.30;13.02;;;;;;;-4.06;nan;99916.41;5052555;28;20033;-73
2022/01/10 08:48:10;;;;;;;34.88;14.85;;;;;;;-4.00;nan;99919.34;5052732;28;20128;-73
2022/01/10 08:50:36;;;;;;;38.80;14.57;;;;;;;-3.97;nan;99931.94;5052740;28;20035;-72
2022/01/10 08:53:04;;;;;;;46.55;16.80;;;;;;;-4.01;nan;99928.84;5052727;28;20120;-71
2022/01/10 08:55:29;;;;;;;35.50;14.63;;;;;;;-3.98;nan;99931.13;5052707;28;20052;-72
2022/01/10 08:57:55;;;;;;;45.28;15.68;;;;;;;-4.04;nan;99923.19;5052508;28;20029;-73
2022/01/10 09:00:20;;;;;;;49.70;17.27;;;;;;;-3.98;nan;99936.25;5052586;28;20028;-72
2022/01/10 09:02:46;;;;;;;45.08;16.00;;;;;;;-4.08;nan;99928.59;5052369;28;20078;-72
2022/01/10 09:05:11;;;;;;;41.58;15.98;;;;;;;-4.10;nan;99922.78;5034118;28;20040;-73
2022/01/10 09:07:36;;;;;;;45.22;15.40;;;;;;;-4.10;nan;99930.50;5034112;28;20118;-72
2022/01/10 09:10:03;;;;;;;41.08;16.48;;;;;;;-4.06;nan;99944.69;5034471;28;20037;-72
2022/01/10 09:12:29;;;;;;;42.38;15.80;;;;;;;-4.17;nan;99937.16;5035349;28;20035;-72
2022/01/10 09:14:54;;;;;;;40.38;15.63;;;;;;;-4.20;nan;99929.72;5052248;28;20032;-72
2022/01/10 09:17:20;;;;;;;37.00;14.05;;;;;;;-4.09;nan;99951.91;5052486;28;20540;-72
2022/01/10 09:19:45;;;;;;;52.03;17.65;;;;;;;-4.12;nan;99939.31;5052232;28;20044;-72
2022/01/10 09:22:10;;;;;;;88.78;24.70;;;;;;;-4.10;nan;99945.91;5052258;28;20032;-72
2022/01/10 09:24:36;;;;;;;60.78;18.95;;;;;;;-3.97;nan;99952.53;5052125;28;20163;-72
2022/01/10 09:27:02;;;;;;;57.42;17.98;;;;;;;-4.00;nan;99947.66;5051827;28;20029;-72
2022/01/10 09:29:27;;;;;;;51.72;19.20;;;;;;;-3.94;nan;99949.66;5052470;28;20040;-72
2022/01/10 09:31:52;;;;;;;41.50;15.05;;;;;;;-3.88;nan;99956.78;5034350;28;20029;-72
2022/01/10 09:34:18;;;;;;;39.35;14.18;;;;;;;-3.91;nan;99955.31;5052154;28;20060;-72
2022/01/10 09:36:43;;;;;;;35.28;13.75;;;;;;;-3.96;nan;99952.38;5034079;28;20033;-71
2022/01/10 09:39:09;;;;;;;33.40;13.30;;;;;;;-3.87;nan;99966.94;5051833;28;20032;-72
2022/01/10 09:41:35;;;;;;;41.25;15.80;;;;;;;-3.91;nan;99960.47;5052288;28;20044;-72
2022/01/10 09:44:02;;;;;;;43.45;16.30;;;;;;;-3.91;nan;99957.09;5052060;28;20136;-72
2022/01/10 09:46:30;;;;;;;43.20;17.63;;;;;;;-3.96;nan;99949.78;5052104;28;20426;-72
2022/01/10 09:48:59;;;;;;;48.90;17.25;;;;;;;-3.85;nan;99961.69;5051479;28;20037;-72
2022/01/10 09:51:26;;;;;;;;;;;;;;;-3.82;nan;99966.53;5052434;28;20029;-72
2022/01/10 09:53:57;;;;;;;33.15;11.60;;;;;;;-3.92;nan;99947.75;5034136;28;20281;-72
2022/01/10 09:56:24;;;;;;;45.97;15.38;;;;;;;-3.74;nan;99971.75;5033967;28;20037;-71
2022/01/10 09:58:50;;;;;;;41.88;14.80;;;;;;;-3.79;nan;99968.00;5051731;28;20108;-72
2022/01/10 10:01:19;;;;;;;47.42;15.35;;;;;;;-3.74;nan;99965.81;5051811;28;20402;-71
2022/01/10 10:03:47;;;;;;;42.47;15.85;;;;;;;-3.82;nan;99953.66;5051875;28;20075;-72
2022/01/10 10:06:14;;;;;;;40.15;15.15;;;;;;;-3.76;nan;99960.00;5051663;28;20033;-72
2022/01/10 10:08:39;;;;;;;38.15;14.50;;;;;;;-3.73;nan;99970.03;5033593;28;20044;-72
2022/01/10 10:11:09;;;;;;;54.97;19.00;;;;;;;-3.71;nan;99970.66;5051658;28;20033;-72
2022/01/10 10:13:44;;;;;;;48.95;16.85;;;;;;;-3.66;nan;99974.44;5051809;28;20387;-70
2022/01/10 10:16:15;;;;;;;51.70;18.58;;;;;;;-3.68;nan;99970.41;5036646;28;20423;-71
2022/01/10 10:18:41;;;;;;;50.75;18.83;;;;;;;-3.70;nan;99964.59;5049065;28;20387;-73
2022/01/10 10:21:12;;;;;;;45.95;17.77;;;;;;;-3.74;nan;99958.91;5035538;28;20045;-73
2022/01/10 10:23:40;;;;;;;45.55;17.95;;;;;;;-3.68;nan;99960.09;5046636;28;20090;-73
2022/01/10 10:26:06;;;;;;;45.50;15.27;;;;;;;-3.58;nan;99980.63;5055388;28;20029;-72
2022/01/10 10:28:35;;;;;;;41.83;16.20;;;;;;;-3.66;nan;99958.19;5037282;28;20029;-73
2022/01/10 10:31:01;;;;;;;46.33;16.15;;;;;;;-3.56;nan;99974.41;5055490;28;20041;-73
2022/01/10 10:33:26;;;;;;;48.75;17.45;;;;;;;-3.53;nan;99971.53;5055103;28;20074;-72
2022/01/10 10:36:07;;;;;;;45.95;16.10;;;;;;;-3.46;nan;99962.28;5055351;28;20029;-72
2022/01/10 10:38:33;;;;;;;47.25;16.85;;;;;;;-3.43;nan;99959.41;5055463;28;20128;-71
2022/01/10 10:41:04;;;;;;;49.53;15.70;;;;;;;-3.23;nan;99985.03;5054622;28;20055;-72
2022/01/10 10:43:31;;;;;;;47.63;18.90;;;;;;;-3.20;nan;99982.16;5055396;28;20417;-72
2022/01/10 10:46:00;;;;;;;47.13;18.33;;;;;;;-3.12;nan;99991.72;5054952;28;20132;-71
2022/01/10 10:48:26;;;;;;;48.08;17.00;;;;;;;-3.16;nan;99991.22;5054855;28;20033;-72
2022/01/10 10:50:54;;;;;;;55.90;19.80;;;;;;;-3.14;nan;99994.44;5055148;28;20029;-72
2022/01/10 10:53:20;;;;;;;56.00;19.80;;;;;;;-3.12;nan;99989.97;5036802;28;20025;-72
2022/01/10 10:55:46;;;;;;;51.83;17.65;;;;;;;-3.15;nan;99990.25;5036995;28;20509;-73
2022/01/10 10:58:13;;;;;;;54.00;18.45;;;;;;;-3.05;nan;99985.03;5036738;28;20037;-72
2022/01/10 11:00:39;;;;;;;62.55;21.88;;;;;;;-2.98;nan;99998.97;5054520;28;20029;-72
2022/01/10 11:03:05;;;;;;;67.60;24.15;;;;;;;-2.95;nan;99992.69;5054461;28;20138;-73
2022/01/10 11:05:33;;;;;;;49.97;17.40;;;;;;;-2.91;nan;99994.03;5054983;28;20036;-73
2022/01/10 11:07:58;;;;;;;61.05;22.10;;;;;;;-2.87;nan;100003.91;5036476;28;20390;-73
2022/01/10 11:10:24;;;;;;;69.20;20.27;;;;;;;-2.89;nan;99997.28;5054668;28;20120;-71
2022/01/10 11:12:55;;;;;;;58.63;20.45;;;;;;;-2.80;nan;99999.78;5040012;28;20037;-72
2022/01/10 11:15:23;;;;;;;59.70;22.67;;;;;;;-2.79;nan;99996.22;5054568;28;20033;-72
2022/01/10 11:17:50;;;;;;;57.28;20.95;;;;;;;-2.78;nan;99986.72;5054523;28;20109;-72
2022/01/10 11:20:20;;;;;;;58.88;22.00;;;;;;;-2.71;nan;99997.25;5054475;28;20124;-71
2022/01/10 11:22:49;;;;;;;67.43;22.48;;;;;;;-2.65;nan;99994.09;5054219;28;20035;-72
2022/01/10 11:25:22;;;;;;;65.55;23.52;;;;;;;-2.62;nan;99998.94;5054503;28;20029;-73
2022/01/10 11:27:49;;;;;;;90.50;30.98;;;;;;;-2.60;nan;99997.03;5034797;28;20036;-72
2022/01/10 11:30:23;;;;;;;73.05;23.77;;;;;;;-2.53;nan;100000.63;5054369;28;20120;-72
2022/01/10 11:33:01;;;;;;;66.68;22.67;;;;;;;-2.45;nan;99995.53;5035910;28;20120;-73
2022/01/10 11:35:29;;;;;;;67.68;24.15;;;;;;;-2.40;nan;99992.50;5054297;28;20043;-74
2022/01/10 11:37:55;;;;;;;62.28;23.58;;;;;;;-2.36;nan;99988.66;5053829;28;20031;-73
2022/01/10 11:40:21;;;;;;;68.35;23.83;;;;;;;-2.33;nan;99987.53;5053700;28;20045;-73
2022/01/10 11:43:00;;;;;;;69.68;24.17;;;;;;;-2.30;nan;99988.03;5054002;28;20029;-73
2022/01/10 11:45:26;;;;;;;77.25;25.48;;;;;;;-2.33;nan;99983.19;5054003;28;20044;-73